sensor_id;sensor_type;location;lat;lon;timestamp;P1;durP1;ratioP1;P2;durP2;ratioP2
60354;SDS011;46198;51.464;-0.066;2022-12-07T00:01:18;13.27;;;6.00;;
60354;SDS011;46198;51.464;-0.066;2022-12-07T00:03:48;13.60;;;6.60;;
60354;SDS011;46198;51.464;-0.066;2022-12-07T00:06:18;16.30;;;6.40;;
60354;SDS011;46198;51.464;-0.066;2022-12-07T00:08:47;14.67;;;6.10;;
60354;SDS011;46198;51.464;-0.066;2022-12-07T00:11:16;15.50;;;6.43;;
60354;SDS011;46198;51.464;-0.066;2022-12-07T00:13:50;12.37;;;5.77;;
60354;SDS011;46198;51.464;-0.066;2022-12-07T00:16:20;13.47;;;6.10;;
60354;SDS011;46198;51.464;-0.066;2022-12-07T00:18:49;10.77;;;5.10;;
60354;SDS011;46198;51.464;-0.066;2022-12-07T00:21:18;13.17;;;5.80;;
60354;SDS011;46198;51.464;-0.066;2022-12-07T00:23:48;14.93;;;5.65;;
60354;SDS011;46198;51.464;-0.066;2022-12-07T00:26:20;11.97;;;6.13;;
60354;SDS011;46198;51.464;-0.066;2022-12-07T00:28:50;16.80;;;6.97;;
60354;SDS011;46198;51.464;-0.066;2022-12-07T00:31:20;15.90;;;6.33;;
60354;SDS011;46198;51.464;-0.066;2022-12-07T00:33:49;13.87;;;5.70;;
60354;SDS011;46198;51.464;-0.066;2022-12-07T00:36:18;15.60;;;5.63;;
60354;SDS011;46198;51.464;-0.066;2022-12-07T00:38:52;16.90;;;6.10;;
60354;SDS011;46198;51.464;-0.066;2022-12-07T00:41:23;9.00;;;5.00;;
60354;SDS011;46198;51.464;-0.066;2022-12-07T00:43:53;12.30;;;5.43;;
60354;SDS011;46198;51.464;-0.066;2022-12-07T00:46:22;13.13;;;5.53;;
60354;SDS011;46198;51.464;-0.066;2022-12-07T00:48:51;14.83;;;5.80;;
60354;SDS011;46198;51.464;-0.066;2022-12-07T00:51:21;12.50;;;5.83;;
60354;SDS011;46198;51.464;-0.066;2022-12-07T00:53:51;16.05;;;5.85;;
60354;SDS011;46198;51.464;-0.066;2022-12-07T00:56:21;17.13;;;6.43;;
60354;SDS011;46198;51.464;-0.066;2022-12-07T00:58:52;14.30;;;6.37;;
60354;SDS011;46198;51.464;-0.066;2022-12-07T01:01:22;12.57;;;6.47;;
60354;SDS011;46198;51.464;-0.066;2022-12-07T01:08:24;18.13;;;6.75;;
60354;SDS011;46198;51.464;-0.066;2022-12-07T01:10:57;12.70;;;7.37;;
60354;SDS011;46198;51.464;-0.066;2022-12-07T01:13:27;15.83;;;6.43;;
60354;SDS011;46198;51.464;-0.066;2022-12-07T01:15:56;14.40;;;7.23;;
60354;SDS011;46198;51.464;-0.066;2022-12-07T01:18:26;14.18;;;7.07;;
60354;SDS011;46198;51.464;-0.066;2022-12-07T01:20:59;16.80;;;7.47;;
60354;SDS011;46198;51.464;-0.066;2022-12-07T01:23:28;15.60;;;7.30;;
60354;SDS011;46198;51.464;-0.066;2022-12-07T01:25:57;15.73;;;6.97;;
60354;SDS011;46198;51.464;-0.066;2022-12-07T01:28:28;17.57;;;7.20;;
60354;SDS011;46198;51.464;-0.066;2022-12-07T01:30:57;20.17;;;6.87;;
60354;SDS011;46198;51.464;-0.066;2022-12-07T01:33:27;16.17;;;6.80;;
60354;SDS011;46198;51.464;-0.066;2022-12-07T01:36:00;12.83;;;6.20;;
60354;SDS011;46198;51.464;-0.066;2022-12-07T01:38:29;15.47;;;6.80;;
60354;SDS011;46198;51.464;-0.066;2022-12-07T01:40:58;12.60;;;6.00;;
60354;SDS011;46198;51.464;-0.066;2022-12-07T01:43:29;14.57;;;6.27;;
60354;SDS011;46198;51.464;-0.066;2022-12-07T01:45:59;13.53;;;6.80;;
60354;SDS011;46198;51.464;-0.066;2022-12-07T01:48:29;19.03;;;6.70;;
60354;SDS011;46198;51.464;-0.066;2022-12-07T01:51:01;15.17;;;6.60;;
60354;SDS011;46198;51.464;-0.066;2022-12-07T01:53:33;12.93;;;6.03;;
60354;SDS011;46198;51.464;-0.066;2022-12-07T01:56:03;14.20;;;6.13;;
60354;SDS011;46198;51.464;-0.066;2022-12-07T01:58:36;12.37;;;6.17;;
60354;SDS011;46198;51.464;-0.066;2022-12-07T02:01:04;12.83;;;6.73;;
60354;SDS011;46198;51.464;-0.066;2022-12-07T02:03:34;12.80;;;5.90;;
60354;SDS011;46198;51.464;-0.066;2022-12-07T02:06:05;16.03;;;6.80;;
60354;SDS011;46198;51.464;-0.066;2022-12-07T02:08:34;18.93;;;7.07;;
60354;SDS011;46198;51.464;-0.066;2022-12-07T02:11:03;17.10;;;6.60;;
60354;SDS011;46198;51.464;-0.066;2022-12-07T02:13:36;15.43;;;6.67;;
60354;SDS011;46198;51.464;-0.066;2022-12-07T02:16:09;17.87;;;6.37;;
60354;SDS011;46198;51.464;-0.066;2022-12-07T02:18:52;11.60;;;6.03;;
60354;SDS011;46198;51.464;-0.066;2022-12-07T02:21:34;12.83;;;7.10;;
60354;SDS011;46198;51.464;-0.066;2022-12-07T02:24:13;15.03;;;5.93;;
60354;SDS011;46198;51.464;-0.066;2022-12-07T02:30:06;18.70;;;6.13;;
60354;SDS011;46198;51.464;-0.066;2022-12-07T02:32:39;15.20;;;6.07;;
60354;SDS011;46198;51.464;-0.066;2022-12-07T02:35:12;11.53;;;5.13;;
60354;SDS011;46198;51.464;-0.066;2022-12-07T02:37:52;13.37;;;5.73;;
60354;SDS011;46198;51.464;-0.066;2022-12-07T02:40:27;12.23;;;5.97;;
60354;SDS011;46198;51.464;-0.066;2022-12-07T02:43:01;15.17;;;5.80;;
60354;SDS011;46198;51.464;-0.066;2022-12-07T02:45:36;16.97;;;6.60;;
60354;SDS011;46198;51.464;-0.066;2022-12-07T02:48:08;16.50;;;6.53;;
60354;SDS011;46198;51.464;-0.066;2022-12-07T02:50:41;14.83;;;6.17;;
60354;SDS011;46198;51.464;-0.066;2022-12-07T02:53:28;14.33;;;6.07;;
60354;SDS011;46198;51.464;-0.066;2022-12-07T02:55:57;10.83;;;5.87;;
60354;SDS011;46198;51.464;-0.066;2022-12-07T02:58:30;11.50;;;6.30;;
60354;SDS011;46198;51.464;-0.066;2022-12-07T03:01:11;13.57;;;6.87;;
60354;SDS011;46198;51.464;-0.066;2022-12-07T03:03:53;15.50;;;7.00;;
60354;SDS011;46198;51.464;-0.066;2022-12-07T03:06:31;14.27;;;7.67;;
60354;SDS011;46198;51.464;-0.066;2022-12-07T03:09:06;13.57;;;6.87;;
60354;SDS011;46198;51.464;-0.066;2022-12-07T03:11:41;17.07;;;7.23;;
60354;SDS011;46198;51.464;-0.066;2022-12-07T03:14:15;14.43;;;7.03;;
60354;SDS011;46198;51.464;-0.066;2022-12-07T03:16:49;15.43;;;6.77;;
60354;SDS011;46198;51.464;-0.066;2022-12-07T03:19:23;14.60;;;6.87;;
60354;SDS011;46198;51.464;-0.066;2022-12-07T03:21:54;16.33;;;7.57;;
60354;SDS011;46198;51.464;-0.066;2022-12-07T03:24:29;15.43;;;6.93;;
60354;SDS011;46198;51.464;-0.066;2022-12-07T03:27:01;15.90;;;7.37;;
60354;SDS011;46198;51.464;-0.066;2022-12-07T03:29:34;12.97;;;6.53;;
60354;SDS011;46198;51.464;-0.066;2022-12-07T03:32:08;20.03;;;7.40;;
60354;SDS011;46198;51.464;-0.066;2022-12-07T03:34:43;13.47;;;6.47;;
60354;SDS011;46198;51.464;-0.066;2022-12-07T03:37:15;15.17;;;7.10;;
60354;SDS011;46198;51.464;-0.066;2022-12-07T03:39:49;13.07;;;7.20;;
60354;SDS011;46198;51.464;-0.066;2022-12-07T03:42:25;13.43;;;6.50;;
60354;SDS011;46198;51.464;-0.066;2022-12-07T03:44:53;17.40;;;7.87;;
60354;SDS011;46198;51.464;-0.066;2022-12-07T03:47:24;13.53;;;6.80;;
60354;SDS011;46198;51.464;-0.066;2022-12-07T03:49:58;17.83;;;7.47;;
60354;SDS011;46198;51.464;-0.066;2022-12-07T03:52:31;16.10;;;7.57;;
60354;SDS011;46198;51.464;-0.066;2022-12-07T03:55:09;15.13;;;6.97;;
60354;SDS011;46198;51.464;-0.066;2022-12-07T03:57:42;20.83;;;7.73;;
60354;SDS011;46198;51.464;-0.066;2022-12-07T04:00:12;12.52;;;6.70;;
60354;SDS011;46198;51.464;-0.066;2022-12-07T04:02:43;14.50;;;6.90;;
60354;SDS011;46198;51.464;-0.066;2022-12-07T04:05:11;13.43;;;7.13;;
60354;SDS011;46198;51.464;-0.066;2022-12-07T04:07:39;17.33;;;8.27;;
60354;SDS011;46198;51.464;-0.066;2022-12-07T04:10:09;15.07;;;7.67;;
60354;SDS011;46198;51.464;-0.066;2022-12-07T04:12:38;16.37;;;7.17;;
60354;SDS011;46198;51.464;-0.066;2022-12-07T04:15:07;17.47;;;7.37;;
60354;SDS011;46198;51.464;-0.066;2022-12-07T04:17:36;15.73;;;7.67;;
60354;SDS011;46198;51.464;-0.066;2022-12-07T04:20:06;14.70;;;7.13;;
60354;SDS011;46198;51.464;-0.066;2022-12-07T04:22:36;17.53;;;7.17;;
60354;SDS011;46198;51.464;-0.066;2022-12-07T04:25:04;18.90;;;7.77;;
60354;SDS011;46198;51.464;-0.066;2022-12-07T04:27:33;20.50;;;8.00;;
60354;SDS011;46198;51.464;-0.066;2022-12-07T04:30:01;15.20;;;7.37;;
60354;SDS011;46198;51.464;-0.066;2022-12-07T04:32:30;14.20;;;6.83;;
60354;SDS011;46198;51.464;-0.066;2022-12-07T04:34:58;14.93;;;6.57;;
60354;SDS011;46198;51.464;-0.066;2022-12-07T04:37:27;14.77;;;6.60;;
60354;SDS011;46198;51.464;-0.066;2022-12-07T04:39:55;15.60;;;7.37;;
60354;SDS011;46198;51.464;-0.066;2022-12-07T04:42:23;11.53;;;6.20;;
60354;SDS011;46198;51.464;-0.066;2022-12-07T04:44:51;10.00;;;5.43;;
60354;SDS011;46198;51.464;-0.066;2022-12-07T04:47:20;17.00;;;7.10;;
60354;SDS011;46198;51.464;-0.066;2022-12-07T04:49:48;12.77;;;6.20;;
60354;SDS011;46198;51.464;-0.066;2022-12-07T04:52:16;12.60;;;6.40;;
60354;SDS011;46198;51.464;-0.066;2022-12-07T04:54:45;10.80;;;6.23;;
60354;SDS011;46198;51.464;-0.066;2022-12-07T04:57:13;12.27;;;6.20;;
60354;SDS011;46198;51.464;-0.066;2022-12-07T04:59:41;13.93;;;6.00;;
60354;SDS011;46198;51.464;-0.066;2022-12-07T05:02:11;13.63;;;6.30;;
60354;SDS011;46198;51.464;-0.066;2022-12-07T05:04:40;12.87;;;7.13;;
60354;SDS011;46198;51.464;-0.066;2022-12-07T05:07:08;16.97;;;6.87;;
60354;SDS011;46198;51.464;-0.066;2022-12-07T05:09:36;12.83;;;6.80;;
60354;SDS011;46198;51.464;-0.066;2022-12-07T05:12:05;14.63;;;6.07;;
60354;SDS011;46198;51.464;-0.066;2022-12-07T05:14:33;16.13;;;6.60;;
60354;SDS011;46198;51.464;-0.066;2022-12-07T05:17:01;9.60;;;6.17;;
60354;SDS011;46198;51.464;-0.066;2022-12-07T05:19:30;14.37;;;6.10;;
60354;SDS011;46198;51.464;-0.066;2022-12-07T05:21:59;10.17;;;5.87;;
60354;SDS011;46198;51.464;-0.066;2022-12-07T05:24:27;13.77;;;6.23;;
60354;SDS011;46198;51.464;-0.066;2022-12-07T05:26:55;15.17;;;5.80;;
60354;SDS011;46198;51.464;-0.066;2022-12-07T05:29:24;11.47;;;5.43;;
60354;SDS011;46198;51.464;-0.066;2022-12-07T05:31:52;16.33;;;6.30;;
60354;SDS011;46198;51.464;-0.066;2022-12-07T05:34:20;10.10;;;5.50;;
60354;SDS011;46198;51.464;-0.066;2022-12-07T05:36:49;14.17;;;5.03;;
60354;SDS011;46198;51.464;-0.066;2022-12-07T05:39:17;10.40;;;5.17;;
60354;SDS011;46198;51.464;-0.066;2022-12-07T05:41:45;10.73;;;4.47;;
60354;SDS011;46198;51.464;-0.066;2022-12-07T05:44:32;9.60;;;5.60;;
60354;SDS011;46198;51.464;-0.066;2022-12-07T05:47:00;12.60;;;5.23;;
60354;SDS011;46198;51.464;-0.066;2022-12-07T05:49:28;12.03;;;5.50;;
60354;SDS011;46198;51.464;-0.066;2022-12-07T05:51:56;13.73;;;5.67;;
60354;SDS011;46198;51.464;-0.066;2022-12-07T05:54:24;16.30;;;5.80;;
60354;SDS011;46198;51.464;-0.066;2022-12-07T05:56:52;10.17;;;5.47;;
60354;SDS011;46198;51.464;-0.066;2022-12-07T05:59:20;15.53;;;5.87;;
60354;SDS011;46198;51.464;-0.066;2022-12-07T06:01:52;8.07;;;5.03;;
60354;SDS011;46198;51.464;-0.066;2022-12-07T06:04:22;13.20;;;5.57;;
60354;SDS011;46198;51.464;-0.066;2022-12-07T06:06:50;12.63;;;5.60;;
60354;SDS011;46198;51.464;-0.066;2022-12-07T06:09:19;12.30;;;5.30;;
60354;SDS011;46198;51.464;-0.066;2022-12-07T06:11:49;15.63;;;6.03;;
60354;SDS011;46198;51.464;-0.066;2022-12-07T06:14:34;14.87;;;5.00;;
60354;SDS011;46198;51.464;-0.066;2022-12-07T06:17:04;12.93;;;6.13;;
60354;SDS011;46198;51.464;-0.066;2022-12-07T06:19:32;9.27;;;5.33;;
60354;SDS011;46198;51.464;-0.066;2022-12-07T06:22:02;12.87;;;5.53;;
60354;SDS011;46198;51.464;-0.066;2022-12-07T06:24:31;12.83;;;5.53;;
60354;SDS011;46198;51.464;-0.066;2022-12-07T06:26:59;17.27;;;6.10;;
60354;SDS011;46198;51.464;-0.066;2022-12-07T06:29:27;16.37;;;6.30;;
60354;SDS011;46198;51.464;-0.066;2022-12-07T06:31:56;12.37;;;6.63;;
60354;SDS011;46198;51.464;-0.066;2022-12-07T06:34:25;23.23;;;6.73;;
60354;SDS011;46198;51.464;-0.066;2022-12-07T06:36:54;14.00;;;5.43;;
60354;SDS011;46198;51.464;-0.066;2022-12-07T06:39:23;13.70;;;5.67;;
60354;SDS011;46198;51.464;-0.066;2022-12-07T06:41:53;12.27;;;5.35;;
60354;SDS011;46198;51.464;-0.066;2022-12-07T06:44:21;11.87;;;5.40;;
60354;SDS011;46198;51.464;-0.066;2022-12-07T06:46:50;13.47;;;5.47;;
60354;SDS011;46198;51.464;-0.066;2022-12-07T06:49:39;17.33;;;5.57;;
60354;SDS011;46198;51.464;-0.066;2022-12-07T06:55:03;11.23;;;5.80;;
60354;SDS011;46198;51.464;-0.066;2022-12-07T06:57:31;17.53;;;6.93;;
60354;SDS011;46198;51.464;-0.066;2022-12-07T06:59:59;12.53;;;5.50;;
60354;SDS011;46198;51.464;-0.066;2022-12-07T07:02:28;13.70;;;6.50;;
60354;SDS011;46198;51.464;-0.066;2022-12-07T07:04:58;11.83;;;5.37;;
60354;SDS011;46198;51.464;-0.066;2022-12-07T07:07:26;10.37;;;5.73;;
60354;SDS011;46198;51.464;-0.066;2022-12-07T07:09:54;13.70;;;5.83;;
60354;SDS011;46198;51.464;-0.066;2022-12-07T07:12:22;13.10;;;5.73;;
60354;SDS011;46198;51.464;-0.066;2022-12-07T07:14:50;8.03;;;4.70;;
60354;SDS011;46198;51.464;-0.066;2022-12-07T07:17:18;11.23;;;5.70;;
60354;SDS011;46198;51.464;-0.066;2022-12-07T07:19:46;13.63;;;5.30;;
60354;SDS011;46198;51.464;-0.066;2022-12-07T07:22:16;14.80;;;5.70;;
60354;SDS011;46198;51.464;-0.066;2022-12-07T07:24:44;8.47;;;5.20;;
60354;SDS011;46198;51.464;-0.066;2022-12-07T07:27:13;14.53;;;6.23;;
60354;SDS011;46198;51.464;-0.066;2022-12-07T07:29:41;9.43;;;5.90;;
60354;SDS011;46198;51.464;-0.066;2022-12-07T07:32:09;10.83;;;6.13;;
60354;SDS011;46198;51.464;-0.066;2022-12-07T07:34:37;10.90;;;6.03;;
60354;SDS011;46198;51.464;-0.066;2022-12-07T07:37:05;11.47;;;6.37;;
60354;SDS011;46198;51.464;-0.066;2022-12-07T07:39:34;14.93;;;6.10;;
60354;SDS011;46198;51.464;-0.066;2022-12-07T07:42:02;17.63;;;6.03;;
60354;SDS011;46198;51.464;-0.066;2022-12-07T07:44:32;8.23;;;6.23;;
60354;SDS011;46198;51.464;-0.066;2022-12-07T07:47:01;12.63;;;6.30;;
60354;SDS011;46198;51.464;-0.066;2022-12-07T07:49:29;13.40;;;6.53;;
60354;SDS011;46198;51.464;-0.066;2022-12-07T07:51:58;14.77;;;6.20;;
60354;SDS011;46198;51.464;-0.066;2022-12-07T07:54:26;17.50;;;5.73;;
60354;SDS011;46198;51.464;-0.066;2022-12-07T07:56:55;10.40;;;5.87;;
60354;SDS011;46198;51.464;-0.066;2022-12-07T07:59:23;9.70;;;5.67;;
60354;SDS011;46198;51.464;-0.066;2022-12-07T08:01:52;11.20;;;6.17;;
60354;SDS011;46198;51.464;-0.066;2022-12-07T08:04:20;25.77;;;6.23;;
60354;SDS011;46198;51.464;-0.066;2022-12-07T08:06:49;13.30;;;6.07;;
60354;SDS011;46198;51.464;-0.066;2022-12-07T08:09:17;13.83;;;5.53;;
60354;SDS011;46198;51.464;-0.066;2022-12-07T08:11:45;11.80;;;6.33;;
60354;SDS011;46198;51.464;-0.066;2022-12-07T08:14:14;12.70;;;6.23;;
60354;SDS011;46198;51.464;-0.066;2022-12-07T08:16:43;11.03;;;5.90;;
60354;SDS011;46198;51.464;-0.066;2022-12-07T08:19:12;11.23;;;5.77;;
60354;SDS011;46198;51.464;-0.066;2022-12-07T08:21:40;14.87;;;5.97;;
60354;SDS011;46198;51.464;-0.066;2022-12-07T08:24:08;15.87;;;6.40;;
60354;SDS011;46198;51.464;-0.066;2022-12-07T08:26:36;17.40;;;6.53;;
60354;SDS011;46198;51.464;-0.066;2022-12-07T08:29:04;10.10;;;5.63;;
60354;SDS011;46198;51.464;-0.066;2022-12-07T08:31:34;13.17;;;5.40;;
60354;SDS011;46198;51.464;-0.066;2022-12-07T08:34:02;11.90;;;5.80;;
60354;SDS011;46198;51.464;-0.066;2022-12-07T08:36:31;11.80;;;5.50;;
60354;SDS011;46198;51.464;-0.066;2022-12-07T08:38:59;12.40;;;5.47;;
60354;SDS011;46198;51.464;-0.066;2022-12-07T08:41:47;12.57;;;4.93;;
60354;SDS011;46198;51.464;-0.066;2022-12-07T08:44:15;10.90;;;5.37;;
60354;SDS011;46198;51.464;-0.066;2022-12-07T08:46:45;10.60;;;5.50;;
60354;SDS011;46198;51.464;-0.066;2022-12-07T08:49:19;11.30;;;5.83;;
60354;SDS011;46198;51.464;-0.066;2022-12-07T08:56:40;12.30;;;4.63;;
60354;SDS011;46198;51.464;-0.066;2022-12-07T08:59:09;10.77;;;5.57;;
60354;SDS011;46198;51.464;-0.066;2022-12-07T09:01:38;12.37;;;4.67;;
60354;SDS011;46198;51.464;-0.066;2022-12-07T09:04:08;10.37;;;4.70;;
60354;SDS011;46198;51.464;-0.066;2022-12-07T09:06:36;12.13;;;5.27;;
60354;SDS011;46198;51.464;-0.066;2022-12-07T09:09:05;11.87;;;5.40;;
60354;SDS011;46198;51.464;-0.066;2022-12-07T09:11:34;12.70;;;4.93;;
60354;SDS011;46198;51.464;-0.066;2022-12-07T09:14:02;13.33;;;5.53;;
60354;SDS011;46198;51.464;-0.066;2022-12-07T09:20:17;10.10;;;6.03;;
60354;SDS011;46198;51.464;-0.066;2022-12-07T09:22:53;10.83;;;5.27;;
60354;SDS011;46198;51.464;-0.066;2022-12-07T09:25:21;14.60;;;5.90;;
60354;SDS011;46198;51.464;-0.066;2022-12-07T09:31:11;13.87;;;5.83;;
60354;SDS011;46198;51.464;-0.066;2022-12-07T09:36:48;10.03;;;5.00;;
60354;SDS011;46198;51.464;-0.066;2022-12-07T09:39:16;10.37;;;5.70;;
60354;SDS011;46198;51.464;-0.066;2022-12-07T09:41:45;13.73;;;5.87;;
60354;SDS011;46198;51.464;-0.066;2022-12-07T09:44:14;15.40;;;5.10;;
60354;SDS011;46198;51.464;-0.066;2022-12-07T09:46:48;11.67;;;5.70;;
60354;SDS011;46198;51.464;-0.066;2022-12-07T09:49:18;12.33;;;5.10;;
60354;SDS011;46198;51.464;-0.066;2022-12-07T09:51:58;11.67;;;4.97;;
60354;SDS011;46198;51.464;-0.066;2022-12-07T09:54:29;8.88;;;4.43;;
60354;SDS011;46198;51.464;-0.066;2022-12-07T09:56:58;14.10;;;5.53;;
60354;SDS011;46198;51.464;-0.066;2022-12-07T09:59:26;14.77;;;5.60;;
60354;SDS011;46198;51.464;-0.066;2022-12-07T10:02:19;11.23;;;5.63;;
60354;SDS011;46198;51.464;-0.066;2022-12-07T10:04:52;14.10;;;5.22;;
60354;SDS011;46198;51.464;-0.066;2022-12-07T10:07:22;14.93;;;5.47;;
60354;SDS011;46198;51.464;-0.066;2022-12-07T10:09:50;11.97;;;5.53;;
60354;SDS011;46198;51.464;-0.066;2022-12-07T10:12:18;10.80;;;5.97;;
60354;SDS011;46198;51.464;-0.066;2022-12-07T10:14:53;14.57;;;5.33;;
60354;SDS011;46198;51.464;-0.066;2022-12-07T10:17:39;13.80;;;5.80;;
60354;SDS011;46198;51.464;-0.066;2022-12-07T10:20:20;14.30;;;5.60;;
60354;SDS011;46198;51.464;-0.066;2022-12-07T10:22:56;12.02;;;4.78;;
60354;SDS011;46198;51.464;-0.066;2022-12-07T10:25:27;15.07;;;5.30;;
60354;SDS011;46198;51.464;-0.066;2022-12-07T10:28:02;13.90;;;5.50;;
60354;SDS011;46198;51.464;-0.066;2022-12-07T10:30:48;12.03;;;5.60;;
60354;SDS011;46198;51.464;-0.066;2022-12-07T10:33:32;13.07;;;5.70;;
60354;SDS011;46198;51.464;-0.066;2022-12-07T10:36:15;10.83;;;5.90;;
60354;SDS011;46198;51.464;-0.066;2022-12-07T10:38:48;10.63;;;5.67;;
60354;SDS011;46198;51.464;-0.066;2022-12-07T10:41:17;10.60;;;5.87;;
60354;SDS011;46198;51.464;-0.066;2022-12-07T10:43:47;12.23;;;5.50;;
60354;SDS011;46198;51.464;-0.066;2022-12-07T10:46:23;12.00;;;5.60;;
60354;SDS011;46198;51.464;-0.066;2022-12-07T10:49:03;10.53;;;5.43;;
60354;SDS011;46198;51.464;-0.066;2022-12-07T10:51:39;16.57;;;5.63;;
60354;SDS011;46198;51.464;-0.066;2022-12-07T10:54:16;12.83;;;6.17;;
60354;SDS011;46198;51.464;-0.066;2022-12-07T10:57:00;17.40;;;5.80;;
60354;SDS011;46198;51.464;-0.066;2022-12-07T10:59:49;11.87;;;5.77;;
60354;SDS011;46198;51.464;-0.066;2022-12-07T11:02:32;10.67;;;5.40;;
60354;SDS011;46198;51.464;-0.066;2022-12-07T11:05:16;15.70;;;6.10;;
60354;SDS011;46198;51.464;-0.066;2022-12-07T11:07:54;11.37;;;5.77;;
60354;SDS011;46198;51.464;-0.066;2022-12-07T11:10:34;12.33;;;6.20;;
60354;SDS011;46198;51.464;-0.066;2022-12-07T11:13:16;12.40;;;6.28;;
60354;SDS011;46198;51.464;-0.066;2022-12-07T11:16:01;17.90;;;7.43;;
60354;SDS011;46198;51.464;-0.066;2022-12-07T11:18:39;10.67;;;5.60;;
60354;SDS011;46198;51.464;-0.066;2022-12-07T11:21:18;13.00;;;5.67;;
60354;SDS011;46198;51.464;-0.066;2022-12-07T11:23:53;13.57;;;5.83;;
60354;SDS011;46198;51.464;-0.066;2022-12-07T11:26:39;11.57;;;6.13;;
60354;SDS011;46198;51.464;-0.066;2022-12-07T11:32:15;11.80;;;6.20;;
60354;SDS011;46198;51.464;-0.066;2022-12-07T11:34:50;11.50;;;5.50;;
60354;SDS011;46198;51.464;-0.066;2022-12-07T11:37:32;9.80;;;6.57;;
60354;SDS011;46198;51.464;-0.066;2022-12-07T11:40:05;12.90;;;5.67;;
60354;SDS011;46198;51.464;-0.066;2022-12-07T11:42:46;9.50;;;5.37;;
60354;SDS011;46198;51.464;-0.066;2022-12-07T11:45:20;15.63;;;6.20;;
60354;SDS011;46198;51.464;-0.066;2022-12-07T11:47:54;12.00;;;5.93;;
60354;SDS011;46198;51.464;-0.066;2022-12-07T11:50:26;15.10;;;6.27;;
60354;SDS011;46198;51.464;-0.066;2022-12-07T11:53:01;15.77;;;6.20;;
60354;SDS011;46198;51.464;-0.066;2022-12-07T11:55:38;10.67;;;6.10;;
60354;SDS011;46198;51.464;-0.066;2022-12-07T11:58:20;13.83;;;6.00;;
60354;SDS011;46198;51.464;-0.066;2022-12-07T12:01:05;11.20;;;6.03;;
60354;SDS011;46198;51.464;-0.066;2022-12-07T12:03:42;15.60;;;6.63;;
60354;SDS011;46198;51.464;-0.066;2022-12-07T12:06:19;10.67;;;5.60;;
60354;SDS011;46198;51.464;-0.066;2022-12-07T12:08:49;14.07;;;6.33;;
60354;SDS011;46198;51.464;-0.066;2022-12-07T12:15:13;10.03;;;5.30;;
60354;SDS011;46198;51.464;-0.066;2022-12-07T12:17:56;13.77;;;5.63;;
60354;SDS011;46198;51.464;-0.066;2022-12-07T12:20:54;15.80;;;5.93;;
60354;SDS011;46198;51.464;-0.066;2022-12-07T12:23:27;12.63;;;6.23;;
60354;SDS011;46198;51.464;-0.066;2022-12-07T12:26:03;11.33;;;5.83;;
60354;SDS011;46198;51.464;-0.066;2022-12-07T12:28:35;10.53;;;5.67;;
60354;SDS011;46198;51.464;-0.066;2022-12-07T12:31:29;12.18;;;5.82;;
60354;SDS011;46198;51.464;-0.066;2022-12-07T12:34:03;12.13;;;5.60;;
60354;SDS011;46198;51.464;-0.066;2022-12-07T12:36:45;9.20;;;5.30;;
60354;SDS011;46198;51.464;-0.066;2022-12-07T12:39:15;10.77;;;5.27;;
60354;SDS011;46198;51.464;-0.066;2022-12-07T12:50:50;9.15;;;5.90;;
60354;SDS011;46198;51.464;-0.066;2022-12-07T12:54:04;11.60;;;5.73;;
60354;SDS011;46198;51.464;-0.066;2022-12-07T12:56:35;16.80;;;6.77;;
60354;SDS011;46198;51.464;-0.066;2022-12-07T13:07:49;9.27;;;5.17;;
60354;SDS011;46198;51.464;-0.066;2022-12-07T13:10:24;11.77;;;5.60;;
60354;SDS011;46198;51.464;-0.066;2022-12-07T13:13:01;11.90;;;6.00;;
60354;SDS011;46198;51.464;-0.066;2022-12-07T13:15:32;9.97;;;5.27;;
60354;SDS011;46198;51.464;-0.066;2022-12-07T13:18:04;9.60;;;4.78;;
60354;SDS011;46198;51.464;-0.066;2022-12-07T13:20:51;10.97;;;4.63;;
60354;SDS011;46198;51.464;-0.066;2022-12-07T13:23:22;13.25;;;5.07;;
60354;SDS011;46198;51.464;-0.066;2022-12-07T13:26:01;13.90;;;4.70;;
60354;SDS011;46198;51.464;-0.066;2022-12-07T13:28:43;10.93;;;4.80;;
60354;SDS011;46198;51.464;-0.066;2022-12-07T13:31:23;11.60;;;5.63;;
60354;SDS011;46198;51.464;-0.066;2022-12-07T13:33:59;12.87;;;5.10;;
60354;SDS011;46198;51.464;-0.066;2022-12-07T13:36:29;9.73;;;4.80;;
60354;SDS011;46198;51.464;-0.066;2022-12-07T13:39:15;11.23;;;5.37;;
60354;SDS011;46198;51.464;-0.066;2022-12-07T13:41:50;10.37;;;4.80;;
60354;SDS011;46198;51.464;-0.066;2022-12-07T13:44:19;10.47;;;4.90;;
60354;SDS011;46198;51.464;-0.066;2022-12-07T13:46:53;11.87;;;4.93;;
60354;SDS011;46198;51.464;-0.066;2022-12-07T13:49:28;9.80;;;4.37;;
60354;SDS011;46198;51.464;-0.066;2022-12-07T13:52:08;11.50;;;4.35;;
60354;SDS011;46198;51.464;-0.066;2022-12-07T13:54:46;10.83;;;4.50;;
60354;SDS011;46198;51.464;-0.066;2022-12-07T13:57:16;10.20;;;4.27;;
60354;SDS011;46198;51.464;-0.066;2022-12-07T13:59:45;8.93;;;4.07;;
60354;SDS011;46198;51.464;-0.066;2022-12-07T14:02:20;10.13;;;4.80;;
60354;SDS011;46198;51.464;-0.066;2022-12-07T14:04:50;10.33;;;4.47;;
60354;SDS011;46198;51.464;-0.066;2022-12-07T14:07:19;9.70;;;4.23;;
60354;SDS011;46198;51.464;-0.066;2022-12-07T14:09:56;9.73;;;4.60;;
60354;SDS011;46198;51.464;-0.066;2022-12-07T14:12:28;9.90;;;5.03;;
60354;SDS011;46198;51.464;-0.066;2022-12-07T14:17:27;13.90;;;4.90;;
60354;SDS011;46198;51.464;-0.066;2022-12-07T14:19:56;13.33;;;4.83;;
60354;SDS011;46198;51.464;-0.066;2022-12-07T14:22:27;12.83;;;5.20;;
60354;SDS011;46198;51.464;-0.066;2022-12-07T14:25:01;8.20;;;4.50;;
60354;SDS011;46198;51.464;-0.066;2022-12-07T14:27:51;10.43;;;5.30;;
60354;SDS011;46198;51.464;-0.066;2022-12-07T14:30:26;11.70;;;5.37;;
60354;SDS011;46198;51.464;-0.066;2022-12-07T14:32:57;9.35;;;5.13;;
60354;SDS011;46198;51.464;-0.066;2022-12-07T14:35:27;10.37;;;5.27;;
60354;SDS011;46198;51.464;-0.066;2022-12-07T14:37:55;12.90;;;5.97;;
60354;SDS011;46198;51.464;-0.066;2022-12-07T14:40:25;9.40;;;5.17;;
60354;SDS011;46198;51.464;-0.066;2022-12-07T14:42:56;9.33;;;4.73;;
60354;SDS011;46198;51.464;-0.066;2022-12-07T14:45:27;11.90;;;4.80;;
60354;SDS011;46198;51.464;-0.066;2022-12-07T14:47:56;7.60;;;4.23;;
60354;SDS011;46198;51.464;-0.066;2022-12-07T14:50:45;14.77;;;5.77;;
60354;SDS011;46198;51.464;-0.066;2022-12-07T14:53:40;10.70;;;4.93;;
60354;SDS011;46198;51.464;-0.066;2022-12-07T14:56:18;9.67;;;4.70;;
60354;SDS011;46198;51.464;-0.066;2022-12-07T14:58:48;11.33;;;4.87;;
60354;SDS011;46198;51.464;-0.066;2022-12-07T15:01:16;9.37;;;4.30;;
60354;SDS011;46198;51.464;-0.066;2022-12-07T15:03:45;7.77;;;3.90;;
60354;SDS011;46198;51.464;-0.066;2022-12-07T15:06:14;9.90;;;5.00;;
60354;SDS011;46198;51.464;-0.066;2022-12-07T15:08:44;10.17;;;5.50;;
60354;SDS011;46198;51.464;-0.066;2022-12-07T15:11:12;8.17;;;5.23;;
60354;SDS011;46198;51.464;-0.066;2022-12-07T15:13:41;7.57;;;5.70;;
60354;SDS011;46198;51.464;-0.066;2022-12-07T15:16:29;18.63;;;6.93;;
60354;SDS011;46198;51.464;-0.066;2022-12-07T15:19:17;8.07;;;5.60;;
60354;SDS011;46198;51.464;-0.066;2022-12-07T15:21:54;15.47;;;6.10;;
60354;SDS011;46198;51.464;-0.066;2022-12-07T15:24:23;14.03;;;5.23;;
60354;SDS011;46198;51.464;-0.066;2022-12-07T15:26:52;10.73;;;4.67;;
60354;SDS011;46198;51.464;-0.066;2022-12-07T15:29:20;9.93;;;4.47;;
60354;SDS011;46198;51.464;-0.066;2022-12-07T15:31:50;7.13;;;4.87;;
60354;SDS011;46198;51.464;-0.066;2022-12-07T15:34:22;9.10;;;4.77;;
60354;SDS011;46198;51.464;-0.066;2022-12-07T15:36:51;8.43;;;5.13;;
60354;SDS011;46198;51.464;-0.066;2022-12-07T15:39:19;8.40;;;5.00;;
60354;SDS011;46198;51.464;-0.066;2022-12-07T15:41:48;11.87;;;6.23;;
60354;SDS011;46198;51.464;-0.066;2022-12-07T15:44:16;10.83;;;6.30;;
60354;SDS011;46198;51.464;-0.066;2022-12-07T15:47:03;11.77;;;5.90;;